Terminal Aerodrome Forecast
Issued by NWS

Home | Current Version | Previous Version | Text Only | Print | Product List | Glossary On
Versions: 1 2 3 4 5 6 7 8 9 10 11 12 13 14 15
000
FTUS44 KOUN 311752
TAFHBR
TAF
KHBR 311752Z 3118/0118 03008KT P6SM SCT040 BKN150
     FM312100 09008KT P6SM OVC035 PROB30 0103/0107 4SM -TSRA
      OVC025CB
     FM010700 03006KT P6SM BKN040 PROB30 0107/0112 4SM -TSRA
      OVC025CB=

USA.gov is the U.S. government's official web portal to all federal, state and local government web resources and services.